sensor_id;sensor_type;location;lat;lon;timestamp;temperature;humidity
9847;DHT22;68671;50.084;8.794;2023-04-03T00:00:44;6.30;99.90
9847;DHT22;68671;50.084;8.794;2023-04-03T00:03:11;6.30;99.90
9847;DHT22;68671;50.084;8.794;2023-04-03T00:05:39;6.30;99.90
9847;DHT22;68671;50.084;8.794;2023-04-03T00:08:06;6.40;99.90
9847;DHT22;68671;50.084;8.794;2023-04-03T00:10:35;6.30;99.90
9847;DHT22;68671;50.084;8.794;2023-04-03T00:13:03;6.30;99.90
9847;DHT22;68671;50.084;8.794;2023-04-03T00:15:30;6.30;99.90
9847;DHT22;68671;50.084;8.794;2023-04-03T00:17:57;6.40;99.90
9847;DHT22;68671;50.084;8.794;2023-04-03T00:20:24;6.40;99.90
9847;DHT22;68671;50.084;8.794;2023-04-03T00:22:54;6.40;99.90
9847;DHT22;68671;50.084;8.794;2023-04-03T00:25:21;6.40;99.90
9847;DHT22;68671;50.084;8.794;2023-04-03T00:27:48;6.40;99.90
9847;DHT22;68671;50.084;8.794;2023-04-03T00:30:17;6.30;99.90
9847;DHT22;68671;50.084;8.794;2023-04-03T00:32:44;6.40;99.90
9847;DHT22;68671;50.084;8.794;2023-04-03T00:35:11;6.40;99.90
9847;DHT22;68671;50.084;8.794;2023-04-03T00:37:41;6.40;99.90
9847;DHT22;68671;50.084;8.794;2023-04-03T00:40:10;6.50;99.90
9847;DHT22;68671;50.084;8.794;2023-04-03T00:42:39;6.50;99.90
9847;DHT22;68671;50.084;8.794;2023-04-03T00:45:34;6.40;99.90
9847;DHT22;68671;50.084;8.794;2023-04-03T00:48:04;6.40;99.90
9847;DHT22;68671;50.084;8.794;2023-04-03T00:50:34;6.40;99.90
9847;DHT22;68671;50.084;8.794;2023-04-03T00:53:04;6.40;99.90
9847;DHT22;68671;50.084;8.794;2023-04-03T00:55:34;6.40;99.90
9847;DHT22;68671;50.084;8.794;2023-04-03T00:58:02;6.30;99.90
9847;DHT22;68671;50.084;8.794;2023-04-03T01:00:30;6.30;99.90
9847;DHT22;68671;50.084;8.794;2023-04-03T01:02:57;6.20;99.90
9847;DHT22;68671;50.084;8.794;2023-04-03T01:05:24;6.20;99.90
9847;DHT22;68671;50.084;8.794;2023-04-03T01:07:52;6.10;99.90
9847;DHT22;68671;50.084;8.794;2023-04-03T01:10:20;6.10;99.90
9847;DHT22;68671;50.084;8.794;2023-04-03T01:12:50;6.00;99.90
9847;DHT22;68671;50.084;8.794;2023-04-03T01:15:19;6.00;99.90
9847;DHT22;68671;50.084;8.794;2023-04-03T01:17:49;6.00;99.90
9847;DHT22;68671;50.084;8.794;2023-04-03T01:23:27;6.00;99.90
9847;DHT22;68671;50.084;8.794;2023-04-03T01:25:57;5.90;99.90
9847;DHT22;68671;50.084;8.794;2023-04-03T01:28:28;6.00;99.90
9847;DHT22;68671;50.084;8.794;2023-04-03T01:31:02;6.00;99.90
9847;DHT22;68671;50.084;8.794;2023-04-03T01:33:34;6.00;99.90
9847;DHT22;68671;50.084;8.794;2023-04-03T01:36:01;6.00;99.90
9847;DHT22;68671;50.084;8.794;2023-04-03T01:38:28;5.90;99.90
9847;DHT22;68671;50.084;8.794;2023-04-03T01:40:55;5.90;99.90
9847;DHT22;68671;50.084;8.794;2023-04-03T01:43:22;5.70;99.90
9847;DHT22;68671;50.084;8.794;2023-04-03T01:45:50;5.70;99.90
9847;DHT22;68671;50.084;8.794;2023-04-03T01:48:18;5.70;99.90
9847;DHT22;68671;50.084;8.794;2023-04-03T01:50:46;5.70;99.90
9847;DHT22;68671;50.084;8.794;2023-04-03T01:53:14;5.60;99.90
9847;DHT22;68671;50.084;8.794;2023-04-03T01:55:41;5.60;99.90
9847;DHT22;68671;50.084;8.794;2023-04-03T01:58:08;5.60;99.90
9847;DHT22;68671;50.084;8.794;2023-04-03T02:00:35;5.60;99.90
9847;DHT22;68671;50.084;8.794;2023-04-03T02:03:02;5.60;99.90
9847;DHT22;68671;50.084;8.794;2023-04-03T02:05:29;5.50;99.90
9847;DHT22;68671;50.084;8.794;2023-04-03T02:07:58;5.50;99.90
9847;DHT22;68671;50.084;8.794;2023-04-03T02:10:25;5.50;99.90
9847;DHT22;68671;50.084;8.794;2023-04-03T02:12:52;5.60;99.90
9847;DHT22;68671;50.084;8.794;2023-04-03T02:15:19;5.50;99.90
9847;DHT22;68671;50.084;8.794;2023-04-03T02:17:47;5.60;99.90
9847;DHT22;68671;50.084;8.794;2023-04-03T02:20:14;5.60;99.90
9847;DHT22;68671;50.084;8.794;2023-04-03T02:22:41;5.60;99.90
9847;DHT22;68671;50.084;8.794;2023-04-03T02:25:10;5.60;99.90
9847;DHT22;68671;50.084;8.794;2023-04-03T02:27:37;5.60;99.90
9847;DHT22;68671;50.084;8.794;2023-04-03T02:30:05;5.60;99.90
9847;DHT22;68671;50.084;8.794;2023-04-03T02:32:32;5.60;99.90
9847;DHT22;68671;50.084;8.794;2023-04-03T02:34:59;5.60;99.90
9847;DHT22;68671;50.084;8.794;2023-04-03T02:37:26;5.50;99.90
9847;DHT22;68671;50.084;8.794;2023-04-03T02:39:54;5.50;99.90
9847;DHT22;68671;50.084;8.794;2023-04-03T02:42:23;5.50;99.90
9847;DHT22;68671;50.084;8.794;2023-04-03T02:44:49;5.50;99.90
9847;DHT22;68671;50.084;8.794;2023-04-03T02:47:16;5.50;99.90
9847;DHT22;68671;50.084;8.794;2023-04-03T02:49:45;5.50;99.90
9847;DHT22;68671;50.084;8.794;2023-04-03T02:52:13;5.40;99.90
9847;DHT22;68671;50.084;8.794;2023-04-03T02:54:40;5.30;99.90
9847;DHT22;68671;50.084;8.794;2023-04-03T02:57:07;5.30;99.90
9847;DHT22;68671;50.084;8.794;2023-04-03T02:59:37;5.30;99.90
9847;DHT22;68671;50.084;8.794;2023-04-03T03:02:06;5.30;99.90
9847;DHT22;68671;50.084;8.794;2023-04-03T03:04:33;5.20;99.90
9847;DHT22;68671;50.084;8.794;2023-04-03T03:07:00;5.20;99.90
9847;DHT22;68671;50.084;8.794;2023-04-03T03:09:29;5.20;99.90
9847;DHT22;68671;50.084;8.794;2023-04-03T03:11:56;5.10;99.90
9847;DHT22;68671;50.084;8.794;2023-04-03T03:14:23;5.10;99.90
9847;DHT22;68671;50.084;8.794;2023-04-03T03:16:52;5.10;99.90
9847;DHT22;68671;50.084;8.794;2023-04-03T03:19:19;5.00;99.90
9847;DHT22;68671;50.084;8.794;2023-04-03T03:21:49;5.00;99.90
9847;DHT22;68671;50.084;8.794;2023-04-03T03:24:16;5.00;99.90
9847;DHT22;68671;50.084;8.794;2023-04-03T03:26:44;4.90;99.90
9847;DHT22;68671;50.084;8.794;2023-04-03T03:29:11;4.90;99.90
9847;DHT22;68671;50.084;8.794;2023-04-03T03:31:38;4.90;99.90
9847;DHT22;68671;50.084;8.794;2023-04-03T03:34:06;4.80;99.90
9847;DHT22;68671;50.084;8.794;2023-04-03T03:36:33;4.90;99.90
9847;DHT22;68671;50.084;8.794;2023-04-03T03:39:00;4.80;99.90
9847;DHT22;68671;50.084;8.794;2023-04-03T03:41:28;4.80;99.90
9847;DHT22;68671;50.084;8.794;2023-04-03T03:43:55;4.80;99.90
9847;DHT22;68671;50.084;8.794;2023-04-03T03:46:22;4.80;99.90
9847;DHT22;68671;50.084;8.794;2023-04-03T03:48:49;4.80;99.90
9847;DHT22;68671;50.084;8.794;2023-04-03T03:51:20;4.70;99.90
9847;DHT22;68671;50.084;8.794;2023-04-03T03:53:47;4.70;99.90
9847;DHT22;68671;50.084;8.794;2023-04-03T03:56:14;4.70;99.90
9847;DHT22;68671;50.084;8.794;2023-04-03T03:58:41;4.70;99.90
9847;DHT22;68671;50.084;8.794;2023-04-03T04:01:08;4.80;99.90
9847;DHT22;68671;50.084;8.794;2023-04-03T04:03:35;4.70;99.90
9847;DHT22;68671;50.084;8.794;2023-04-03T04:06:06;4.70;99.90
9847;DHT22;68671;50.084;8.794;2023-04-03T04:08:35;4.60;99.90
9847;DHT22;68671;50.084;8.794;2023-04-03T04:11:02;4.60;99.90
9847;DHT22;68671;50.084;8.794;2023-04-03T04:13:29;4.60;99.90
9847;DHT22;68671;50.084;8.794;2023-04-03T04:15:56;4.60;99.90
9847;DHT22;68671;50.084;8.794;2023-04-03T04:18:23;4.60;99.90
9847;DHT22;68671;50.084;8.794;2023-04-03T04:20:51;4.60;99.90
9847;DHT22;68671;50.084;8.794;2023-04-03T04:23:18;4.40;99.90
9847;DHT22;68671;50.084;8.794;2023-04-03T04:25:48;4.50;99.90
9847;DHT22;68671;50.084;8.794;2023-04-03T04:28:15;4.50;99.90
9847;DHT22;68671;50.084;8.794;2023-04-03T04:30:42;4.50;99.90
9847;DHT22;68671;50.084;8.794;2023-04-03T04:33:09;4.40;99.90
9847;DHT22;68671;50.084;8.794;2023-04-03T04:35:40;4.50;99.90
9847;DHT22;68671;50.084;8.794;2023-04-03T04:38:08;4.60;99.90
9847;DHT22;68671;50.084;8.794;2023-04-03T04:40:36;4.60;99.90
9847;DHT22;68671;50.084;8.794;2023-04-03T04:43:12;4.60;99.90
9847;DHT22;68671;50.084;8.794;2023-04-03T04:45:43;4.60;99.90
9847;DHT22;68671;50.084;8.794;2023-04-03T04:48:11;4.70;99.90
9847;DHT22;68671;50.084;8.794;2023-04-03T04:50:49;4.60;99.90
9847;DHT22;68671;50.084;8.794;2023-04-03T04:53:20;4.60;99.90
9847;DHT22;68671;50.084;8.794;2023-04-03T04:55:48;4.60;99.90
9847;DHT22;68671;50.084;8.794;2023-04-03T04:58:16;4.60;99.90
9847;DHT22;68671;50.084;8.794;2023-04-03T05:00:43;4.50;99.90
9847;DHT22;68671;50.084;8.794;2023-04-03T05:03:11;4.50;99.90
9847;DHT22;68671;50.084;8.794;2023-04-03T05:05:40;4.50;99.90
9847;DHT22;68671;50.084;8.794;2023-04-03T05:08:07;4.50;99.90
9847;DHT22;68671;50.084;8.794;2023-04-03T05:10:49;4.40;99.90
9847;DHT22;68671;50.084;8.794;2023-04-03T05:13:58;4.40;99.90
9847;DHT22;68671;50.084;8.794;2023-04-03T05:16:46;4.30;99.90
9847;DHT22;68671;50.084;8.794;2023-04-03T05:19:41;4.30;99.90
9847;DHT22;68671;50.084;8.794;2023-04-03T05:22:18;4.30;99.90
9847;DHT22;68671;50.084;8.794;2023-04-03T05:27:36;4.30;99.90
9847;DHT22;68671;50.084;8.794;2023-04-03T05:30:07;4.30;99.90
9847;DHT22;68671;50.084;8.794;2023-04-03T05:32:34;4.30;99.90
9847;DHT22;68671;50.084;8.794;2023-04-03T05:35:01;4.30;99.90
9847;DHT22;68671;50.084;8.794;2023-04-03T05:37:29;4.40;99.90
9847;DHT22;68671;50.084;8.794;2023-04-03T05:39:56;4.60;99.90
9847;DHT22;68671;50.084;8.794;2023-04-03T05:42:23;4.70;99.90
9847;DHT22;68671;50.084;8.794;2023-04-03T05:44:50;5.00;99.90
9847;DHT22;68671;50.084;8.794;2023-04-03T05:47:19;5.20;99.90
9847;DHT22;68671;50.084;8.794;2023-04-03T05:49:46;5.60;99.90
9847;DHT22;68671;50.084;8.794;2023-04-03T05:52:19;5.90;99.90
9847;DHT22;68671;50.084;8.794;2023-04-03T05:54:47;6.30;99.90
9847;DHT22;68671;50.084;8.794;2023-04-03T05:57:15;6.70;99.90
9847;DHT22;68671;50.084;8.794;2023-04-03T05:59:43;7.00;99.90
9847;DHT22;68671;50.084;8.794;2023-04-03T06:02:19;7.30;99.90
9847;DHT22;68671;50.084;8.794;2023-04-03T06:04:47;7.60;99.90
9847;DHT22;68671;50.084;8.794;2023-04-03T06:07:15;8.00;99.90
9847;DHT22;68671;50.084;8.794;2023-04-03T06:09:44;8.20;99.90
9847;DHT22;68671;50.084;8.794;2023-04-03T06:12:12;8.50;99.90
9847;DHT22;68671;50.084;8.794;2023-04-03T06:14:39;8.90;99.90
9847;DHT22;68671;50.084;8.794;2023-04-03T06:17:07;9.20;99.90
9847;DHT22;68671;50.084;8.794;2023-04-03T06:19:36;9.50;99.90
9847;DHT22;68671;50.084;8.794;2023-04-03T06:22:03;9.80;99.90
9847;DHT22;68671;50.084;8.794;2023-04-03T06:24:30;10.00;99.90
9847;DHT22;68671;50.084;8.794;2023-04-03T06:26:58;10.30;99.90
9847;DHT22;68671;50.084;8.794;2023-04-03T06:29:25;10.40;99.90
9847;DHT22;68671;50.084;8.794;2023-04-03T06:31:52;10.50;99.90
9847;DHT22;68671;50.084;8.794;2023-04-03T06:34:19;10.50;99.90
9847;DHT22;68671;50.084;8.794;2023-04-03T06:36:48;10.60;99.90
9847;DHT22;68671;50.084;8.794;2023-04-03T06:39:17;10.60;99.90
9847;DHT22;68671;50.084;8.794;2023-04-03T06:41:45;10.70;99.90
9847;DHT22;68671;50.084;8.794;2023-04-03T06:44:12;10.90;99.90
9847;DHT22;68671;50.084;8.794;2023-04-03T06:46:42;11.10;99.90
9847;DHT22;68671;50.084;8.794;2023-04-03T06:49:10;11.20;99.90
9847;DHT22;68671;50.084;8.794;2023-04-03T06:51:37;11.30;99.90
9847;DHT22;68671;50.084;8.794;2023-04-03T06:54:06;11.50;99.90
9847;DHT22;68671;50.084;8.794;2023-04-03T06:56:34;11.60;98.80
9847;DHT22;68671;50.084;8.794;2023-04-03T06:59:01;11.60;98.40
9847;DHT22;68671;50.084;8.794;2023-04-03T07:01:29;11.70;98.30
9847;DHT22;68671;50.084;8.794;2023-04-03T07:03:57;11.80;97.70
9847;DHT22;68671;50.084;8.794;2023-04-03T07:06:24;11.90;97.80
9847;DHT22;68671;50.084;8.794;2023-04-03T07:08:53;12.10;97.50
9847;DHT22;68671;50.084;8.794;2023-04-03T07:11:22;12.30;97.10
9847;DHT22;68671;50.084;8.794;2023-04-03T07:13:49;12.60;96.30
9847;DHT22;68671;50.084;8.794;2023-04-03T07:16:16;12.70;95.90
9847;DHT22;68671;50.084;8.794;2023-04-03T07:18:43;12.70;95.20
9847;DHT22;68671;50.084;8.794;2023-04-03T07:21:11;12.80;94.40
9847;DHT22;68671;50.084;8.794;2023-04-03T07:23:38;12.90;94.50
9847;DHT22;68671;50.084;8.794;2023-04-03T07:26:05;13.00;93.80
9847;DHT22;68671;50.084;8.794;2023-04-03T07:28:35;13.00;93.30
9847;DHT22;68671;50.084;8.794;2023-04-03T07:31:05;13.00;92.90
9847;DHT22;68671;50.084;8.794;2023-04-03T07:33:34;13.10;93.10
9847;DHT22;68671;50.084;8.794;2023-04-03T07:36:03;13.10;92.30
9847;DHT22;68671;50.084;8.794;2023-04-03T07:38:30;13.20;92.50
9847;DHT22;68671;50.084;8.794;2023-04-03T07:40:57;13.40;92.50
9847;DHT22;68671;50.084;8.794;2023-04-03T07:43:25;13.60;92.10
9847;DHT22;68671;50.084;8.794;2023-04-03T07:45:53;13.80;91.60
9847;DHT22;68671;50.084;8.794;2023-04-03T07:48:21;13.90;91.50
9847;DHT22;68671;50.084;8.794;2023-04-03T07:50:49;14.00;90.50
9847;DHT22;68671;50.084;8.794;2023-04-03T07:53:16;14.00;90.00
9847;DHT22;68671;50.084;8.794;2023-04-03T07:55:46;14.10;90.00
9847;DHT22;68671;50.084;8.794;2023-04-03T07:58:14;14.10;88.20
9847;DHT22;68671;50.084;8.794;2023-04-03T08:00:42;14.00;86.50
9847;DHT22;68671;50.084;8.794;2023-04-03T08:03:11;13.70;83.80
9847;DHT22;68671;50.084;8.794;2023-04-03T08:05:38;13.30;82.60
9847;DHT22;68671;50.084;8.794;2023-04-03T08:08:17;12.60;78.40
9847;DHT22;68671;50.084;8.794;2023-04-03T08:14:23;11.20;77.10
9847;DHT22;68671;50.084;8.794;2023-04-03T08:16:53;10.60;78.20
9847;DHT22;68671;50.084;8.794;2023-04-03T08:19:40;10.00;78.00
9847;DHT22;68671;50.084;8.794;2023-04-03T08:22:07;9.50;80.30
9847;DHT22;68671;50.084;8.794;2023-04-03T08:24:35;9.00;80.20
9847;DHT22;68671;50.084;8.794;2023-04-03T08:27:03;8.70;82.00
9847;DHT22;68671;50.084;8.794;2023-04-03T08:29:30;8.40;82.90
9847;DHT22;68671;50.084;8.794;2023-04-03T08:31:57;8.30;84.00
9847;DHT22;68671;50.084;8.794;2023-04-03T08:34:24;8.10;84.90
9847;DHT22;68671;50.084;8.794;2023-04-03T08:36:53;8.00;85.80
9847;DHT22;68671;50.084;8.794;2023-04-03T08:39:20;7.90;86.50
9847;DHT22;68671;50.084;8.794;2023-04-03T08:41:48;7.80;86.90
9847;DHT22;68671;50.084;8.794;2023-04-03T08:44:23;7.70;87.30
9847;DHT22;68671;50.084;8.794;2023-04-03T08:47:02;7.60;87.90
9847;DHT22;68671;50.084;8.794;2023-04-03T08:49:33;7.50;88.50
9847;DHT22;68671;50.084;8.794;2023-04-03T08:52:09;7.50;89.40
9847;DHT22;68671;50.084;8.794;2023-04-03T08:54:48;7.50;89.30
9847;DHT22;68671;50.084;8.794;2023-04-03T08:57:17;7.50;89.00
9847;DHT22;68671;50.084;8.794;2023-04-03T08:59:47;7.40;89.40
9847;DHT22;68671;50.084;8.794;2023-04-03T09:02:24;7.40;89.30
9847;DHT22;68671;50.084;8.794;2023-04-03T09:04:52;7.40;89.00
9847;DHT22;68671;50.084;8.794;2023-04-03T09:07:25;7.40;89.00
9847;DHT22;68671;50.084;8.794;2023-04-03T09:09:55;7.40;89.40
9847;DHT22;68671;50.084;8.794;2023-04-03T09:12:26;7.50;88.90
9847;DHT22;68671;50.084;8.794;2023-04-03T09:15:02;7.50;88.20
9847;DHT22;68671;50.084;8.794;2023-04-03T09:17:41;7.50;87.70
9847;DHT22;68671;50.084;8.794;2023-04-03T09:20:17;7.50;87.30
9847;DHT22;68671;50.084;8.794;2023-04-03T09:22:48;7.60;86.60
9847;DHT22;68671;50.084;8.794;2023-04-03T09:25:18;7.50;86.30
9847;DHT22;68671;50.084;8.794;2023-04-03T09:27:47;7.50;85.90
9847;DHT22;68671;50.084;8.794;2023-04-03T09:30:15;7.50;85.60
9847;DHT22;68671;50.084;8.794;2023-04-03T09:32:44;7.40;85.00
9847;DHT22;68671;50.084;8.794;2023-04-03T09:35:19;7.50;85.20
9847;DHT22;68671;50.084;8.794;2023-04-03T09:37:49;7.40;83.80
9847;DHT22;68671;50.084;8.794;2023-04-03T09:40:36;7.40;82.70
9847;DHT22;68671;50.084;8.794;2023-04-03T09:43:26;7.30;81.90
9847;DHT22;68671;50.084;8.794;2023-04-03T09:45:56;7.40;82.40
9847;DHT22;68671;50.084;8.794;2023-04-03T09:48:24;7.40;81.20
9847;DHT22;68671;50.084;8.794;2023-04-03T09:50:59;7.40;80.20
9847;DHT22;68671;50.084;8.794;2023-04-03T09:53:35;7.40;79.40
9847;DHT22;68671;50.084;8.794;2023-04-03T09:56:18;7.40;78.50
9847;DHT22;68671;50.084;8.794;2023-04-03T09:58:48;7.40;78.00
9847;DHT22;68671;50.084;8.794;2023-04-03T10:01:28;7.40;77.90
9847;DHT22;68671;50.084;8.794;2023-04-03T10:04:08;7.40;79.30
9847;DHT22;68671;50.084;8.794;2023-04-03T10:06:38;7.60;80.60
9847;DHT22;68671;50.084;8.794;2023-04-03T10:09:18;7.80;81.50
9847;DHT22;68671;50.084;8.794;2023-04-03T10:12:07;7.80;80.50
9847;DHT22;68671;50.084;8.794;2023-04-03T10:14:37;7.80;79.70
9847;DHT22;68671;50.084;8.794;2023-04-03T10:17:16;7.80;79.10
9847;DHT22;68671;50.084;8.794;2023-04-03T10:19:48;7.80;78.60
9847;DHT22;68671;50.084;8.794;2023-04-03T10:22:20;7.80;78.30
9847;DHT22;68671;50.084;8.794;2023-04-03T10:25:01;7.80;78.70
9847;DHT22;68671;50.084;8.794;2023-04-03T10:27:48;7.80;78.80
9847;DHT22;68671;50.084;8.794;2023-04-03T10:30:25;7.80;78.60
9847;DHT22;68671;50.084;8.794;2023-04-03T10:33:11;7.80;78.70
9847;DHT22;68671;50.084;8.794;2023-04-03T10:35:51;7.90;79.00
9847;DHT22;68671;50.084;8.794;2023-04-03T10:38:23;7.90;79.30
9847;DHT22;68671;50.084;8.794;2023-04-03T10:41:04;7.90;79.40
9847;DHT22;68671;50.084;8.794;2023-04-03T10:43:38;7.90;79.30
9847;DHT22;68671;50.084;8.794;2023-04-03T10:46:13;8.10;79.90
9847;DHT22;68671;50.084;8.794;2023-04-03T10:49:05;8.00;79.50
9847;DHT22;68671;50.084;8.794;2023-04-03T10:51:39;8.00;79.30
9847;DHT22;68671;50.084;8.794;2023-04-03T10:54:11;8.10;79.20
9847;DHT22;68671;50.084;8.794;2023-04-03T10:56:43;8.20;79.40
9847;DHT22;68671;50.084;8.794;2023-04-03T10:59:21;8.20;79.40
9847;DHT22;68671;50.084;8.794;2023-04-03T11:01:53;8.20;79.40
9847;DHT22;68671;50.084;8.794;2023-04-03T11:04:24;8.20;80.60
9847;DHT22;68671;50.084;8.794;2023-04-03T11:06:57;8.20;79.80
9847;DHT22;68671;50.084;8.794;2023-04-03T11:09:28;8.20;80.00
9847;DHT22;68671;50.084;8.794;2023-04-03T11:12:02;8.20;80.00
9847;DHT22;68671;50.084;8.794;2023-04-03T11:14:32;8.20;79.90
9847;DHT22;68671;50.084;8.794;2023-04-03T11:17:05;8.20;80.00
9847;DHT22;68671;50.084;8.794;2023-04-03T11:19:41;8.20;80.00
9847;DHT22;68671;50.084;8.794;2023-04-03T11:22:16;8.20;79.90
9847;DHT22;68671;50.084;8.794;2023-04-03T11:24:55;8.30;81.20
9847;DHT22;68671;50.084;8.794;2023-04-03T11:27:27;8.30;79.80
9847;DHT22;68671;50.084;8.794;2023-04-03T11:29:59;8.30;79.70
9847;DHT22;68671;50.084;8.794;2023-04-03T11:32:53;8.30;79.80
9847;DHT22;68671;50.084;8.794;2023-04-03T11:35:25;8.30;79.30
9847;DHT22;68671;50.084;8.794;2023-04-03T11:37:53;8.30;78.90
9847;DHT22;68671;50.084;8.794;2023-04-03T11:40:24;8.40;79.70
9847;DHT22;68671;50.084;8.794;2023-04-03T11:43:05;8.40;79.40
9847;DHT22;68671;50.084;8.794;2023-04-03T11:45:36;8.50;79.10
9847;DHT22;68671;50.084;8.794;2023-04-03T11:48:06;8.50;79.10
9847;DHT22;68671;50.084;8.794;2023-04-03T11:50:44;8.60;78.60
9847;DHT22;68671;50.084;8.794;2023-04-03T11:53:32;8.60;77.90
9847;DHT22;68671;50.084;8.794;2023-04-03T11:59:23;8.70;79.40
9847;DHT22;68671;50.084;8.794;2023-04-03T12:01:50;8.80;79.80
9847;DHT22;68671;50.084;8.794;2023-04-03T12:04:19;8.90;77.80
9847;DHT22;68671;50.084;8.794;2023-04-03T12:10:15;8.80;76.40
9847;DHT22;68671;50.084;8.794;2023-04-03T12:12:56;8.80;76.30
9847;DHT22;68671;50.084;8.794;2023-04-03T12:15:47;8.80;76.00
9847;DHT22;68671;50.084;8.794;2023-04-03T12:21:18;8.70;76.70
9847;DHT22;68671;50.084;8.794;2023-04-03T12:24:02;8.80;76.50
9847;DHT22;68671;50.084;8.794;2023-04-03T12:26:38;8.80;76.30
9847;DHT22;68671;50.084;8.794;2023-04-03T12:29:15;8.90;76.20
9847;DHT22;68671;50.084;8.794;2023-04-03T12:31:56;8.90;76.20
9847;DHT22;68671;50.084;8.794;2023-04-03T12:34:55;8.90;76.20
9847;DHT22;68671;50.084;8.794;2023-04-03T12:37:39;8.90;75.50
9847;DHT22;68671;50.084;8.794;2023-04-03T12:40:14;8.90;75.30
9847;DHT22;68671;50.084;8.794;2023-04-03T12:43:02;8.90;75.00
9847;DHT22;68671;50.084;8.794;2023-04-03T12:45:41;8.90;75.10
9847;DHT22;68671;50.084;8.794;2023-04-03T12:48:15;9.00;75.20
9847;DHT22;68671;50.084;8.794;2023-04-03T12:50:45;9.00;74.80
9847;DHT22;68671;50.084;8.794;2023-04-03T12:53:16;9.10;74.70
9847;DHT22;68671;50.084;8.794;2023-04-03T12:55:45;9.10;74.50
9847;DHT22;68671;50.084;8.794;2023-04-03T12:58:16;9.20;74.40
9847;DHT22;68671;50.084;8.794;2023-04-03T13:00:59;9.20;73.80
9847;DHT22;68671;50.084;8.794;2023-04-03T13:03:28;9.10;74.10
9847;DHT22;68671;50.084;8.794;2023-04-03T13:05:58;9.20;74.30
9847;DHT22;68671;50.084;8.794;2023-04-03T13:08:26;9.10;73.80
9847;DHT22;68671;50.084;8.794;2023-04-03T13:10:56;9.20;73.50
9847;DHT22;68671;50.084;8.794;2023-04-03T13:13:24;9.20;73.30
9847;DHT22;68671;50.084;8.794;2023-04-03T13:15:52;9.20;73.10
9847;DHT22;68671;50.084;8.794;2023-04-03T13:18:33;9.10;73.00
9847;DHT22;68671;50.084;8.794;2023-04-03T13:21:03;9.20;73.10
9847;DHT22;68671;50.084;8.794;2023-04-03T13:23:32;9.20;72.80
9847;DHT22;68671;50.084;8.794;2023-04-03T13:26:01;9.20;72.30
9847;DHT22;68671;50.084;8.794;2023-04-03T13:28:30;9.20;72.50
9847;DHT22;68671;50.084;8.794;2023-04-03T13:31:04;9.20;72.70
9847;DHT22;68671;50.084;8.794;2023-04-03T13:33:34;9.30;72.70
9847;DHT22;68671;50.084;8.794;2023-04-03T13:36:05;9.30;72.90
9847;DHT22;68671;50.084;8.794;2023-04-03T13:38:34;9.30;73.10
9847;DHT22;68671;50.084;8.794;2023-04-03T13:41:05;9.30;72.80
9847;DHT22;68671;50.084;8.794;2023-04-03T13:43:48;9.30;72.70
9847;DHT22;68671;50.084;8.794;2023-04-03T13:46:25;9.40;74.10
9847;DHT22;68671;50.084;8.794;2023-04-03T13:48:56;9.40;74.10
9847;DHT22;68671;50.084;8.794;2023-04-03T13:51:26;9.50;73.70
9847;DHT22;68671;50.084;8.794;2023-04-03T13:53:54;9.40;73.20
9847;DHT22;68671;50.084;8.794;2023-04-03T13:56:29;9.40;73.30
9847;DHT22;68671;50.084;8.794;2023-04-03T13:59:03;9.40;73.50
9847;DHT22;68671;50.084;8.794;2023-04-03T14:01:43;9.40;73.60
9847;DHT22;68671;50.084;8.794;2023-04-03T14:04:15;9.50;73.00
9847;DHT22;68671;50.084;8.794;2023-04-03T14:06:43;9.50;72.80
9847;DHT22;68671;50.084;8.794;2023-04-03T14:09:11;9.50;72.50
9847;DHT22;68671;50.084;8.794;2023-04-03T14:11:41;9.50;72.70
9847;DHT22;68671;50.084;8.794;2023-04-03T14:14:13;9.50;72.90
9847;DHT22;68671;50.084;8.794;2023-04-03T14:16:46;9.50;72.60
9847;DHT22;68671;50.084;8.794;2023-04-03T14:19:23;9.50;72.60
9847;DHT22;68671;50.084;8.794;2023-04-03T14:21:51;9.50;72.50
9847;DHT22;68671;50.084;8.794;2023-04-03T14:24:19;9.50;72.90
9847;DHT22;68671;50.084;8.794;2023-04-03T14:26:47;9.50;73.10
9847;DHT22;68671;50.084;8.794;2023-04-03T14:29:15;9.50;72.60
9847;DHT22;68671;50.084;8.794;2023-04-03T14:31:44;9.50;72.50
9847;DHT22;68671;50.084;8.794;2023-04-03T14:34:13;9.50;72.30
9847;DHT22;68671;50.084;8.794;2023-04-03T14:36:44;9.50;72.70
9847;DHT22;68671;50.084;8.794;2023-04-03T14:39:17;9.40;72.80
9847;DHT22;68671;50.084;8.794;2023-04-03T14:41:45;9.40;73.00
9847;DHT22;68671;50.084;8.794;2023-04-03T14:44:12;9.40;73.20
9847;DHT22;68671;50.084;8.794;2023-04-03T14:46:43;9.50;73.50
9847;DHT22;68671;50.084;8.794;2023-04-03T14:49:14;9.50;73.50
9847;DHT22;68671;50.084;8.794;2023-04-03T14:51:43;9.50;73.40
9847;DHT22;68671;50.084;8.794;2023-04-03T14:54:13;9.60;73.60
9847;DHT22;68671;50.084;8.794;2023-04-03T14:56:40;9.60;73.50
9847;DHT22;68671;50.084;8.794;2023-04-03T14:59:09;9.60;73.30
9847;DHT22;68671;50.084;8.794;2023-04-03T15:01:37;9.80;73.70
9847;DHT22;68671;50.084;8.794;2023-04-03T15:04:09;9.70;73.40
9847;DHT22;68671;50.084;8.794;2023-04-03T15:06:36;9.70;72.90
9847;DHT22;68671;50.084;8.794;2023-04-03T15:09:05;9.70;72.80
9847;DHT22;68671;50.084;8.794;2023-04-03T15:11:32;9.70;72.90
9847;DHT22;68671;50.084;8.794;2023-04-03T15:13:59;9.70;72.90
9847;DHT22;68671;50.084;8.794;2023-04-03T15:16:26;9.70;72.60
9847;DHT22;68671;50.084;8.794;2023-04-03T15:18:53;9.60;72.60
9847;DHT22;68671;50.084;8.794;2023-04-03T15:21:21;9.60;72.90
9847;DHT22;68671;50.084;8.794;2023-04-03T15:23:47;9.60;72.90
9847;DHT22;68671;50.084;8.794;2023-04-03T15:26:16;9.60;73.00
9847;DHT22;68671;50.084;8.794;2023-04-03T15:28:43;9.60;72.80
9847;DHT22;68671;50.084;8.794;2023-04-03T15:31:11;9.50;72.40
9847;DHT22;68671;50.084;8.794;2023-04-03T15:33:38;9.60;72.70
9847;DHT22;68671;50.084;8.794;2023-04-03T15:36:05;9.60;72.60
9847;DHT22;68671;50.084;8.794;2023-04-03T15:38:32;9.60;72.60
9847;DHT22;68671;50.084;8.794;2023-04-03T15:41:01;9.70;72.80
9847;DHT22;68671;50.084;8.794;2023-04-03T15:43:30;9.60;73.80
9847;DHT22;68671;50.084;8.794;2023-04-03T15:45:59;9.60;73.00
9847;DHT22;68671;50.084;8.794;2023-04-03T15:48:27;9.70;73.20
9847;DHT22;68671;50.084;8.794;2023-04-03T15:50:55;9.70;72.80
9847;DHT22;68671;50.084;8.794;2023-04-03T15:53:22;9.60;73.20
9847;DHT22;68671;50.084;8.794;2023-04-03T15:55:49;9.50;72.50
9847;DHT22;68671;50.084;8.794;2023-04-03T15:58:16;9.50;72.70
9847;DHT22;68671;50.084;8.794;2023-04-03T16:00:44;9.50;72.80
9847;DHT22;68671;50.084;8.794;2023-04-03T16:03:15;9.50;72.60
9847;DHT22;68671;50.084;8.794;2023-04-03T16:05:43;9.50;72.20
9847;DHT22;68671;50.084;8.794;2023-04-03T16:08:10;9.50;72.10
9847;DHT22;68671;50.084;8.794;2023-04-03T16:10:38;9.40;72.30
9847;DHT22;68671;50.084;8.794;2023-04-03T16:13:06;9.50;72.30
9847;DHT22;68671;50.084;8.794;2023-04-03T16:15:34;9.40;72.60
9847;DHT22;68671;50.084;8.794;2023-04-03T16:18:03;9.40;72.80
9847;DHT22;68671;50.084;8.794;2023-04-03T16:20:31;9.40;72.90
9847;DHT22;68671;50.084;8.794;2023-04-03T16:22:58;9.40;72.90
9847;DHT22;68671;50.084;8.794;2023-04-03T16:25:26;9.40;72.80
9847;DHT22;68671;50.084;8.794;2023-04-03T16:27:53;9.40;73.00
9847;DHT22;68671;50.084;8.794;2023-04-03T16:30:20;9.40;73.00
9847;DHT22;68671;50.084;8.794;2023-04-03T16:32:49;9.50;73.10
9847;DHT22;68671;50.084;8.794;2023-04-03T16:35:18;9.40;72.90
9847;DHT22;68671;50.084;8.794;2023-04-03T16:37:45;9.40;72.40
9847;DHT22;68671;50.084;8.794;2023-04-03T16:40:12;9.30;72.10